sensor_id;sensor_type;location;lat;lon;timestamp;temperature;humidity
1083;DHT22;530;51.448;7.238;2023-04-06T00:01:47;5.30;99.90
1083;DHT22;530;51.448;7.238;2023-04-06T00:04:13;5.30;99.90
1083;DHT22;530;51.448;7.238;2023-04-06T00:06:39;5.30;99.90
1083;DHT22;530;51.448;7.238;2023-04-06T00:09:04;5.30;99.90
1083;DHT22;530;51.448;7.238;2023-04-06T00:11:30;5.30;99.90
1083;DHT22;530;51.448;7.238;2023-04-06T00:13:56;5.20;99.90
1083;DHT22;530;51.448;7.238;2023-04-06T00:16:21;5.00;99.90
1083;DHT22;530;51.448;7.238;2023-04-06T00:18:47;5.00;99.90
1083;DHT22;530;51.448;7.238;2023-04-06T00:21:13;5.00;99.90
1083;DHT22;530;51.448;7.238;2023-04-06T00:23:40;5.00;99.90
1083;DHT22;530;51.448;7.238;2023-04-06T00:26:07;4.90;99.90
1083;DHT22;530;51.448;7.238;2023-04-06T00:28:33;4.90;99.90
1083;DHT22;530;51.448;7.238;2023-04-06T00:30:59;5.00;99.90
1083;DHT22;530;51.448;7.238;2023-04-06T00:33:25;5.30;98.40
1083;DHT22;530;51.448;7.238;2023-04-06T00:35:51;5.20;98.10
1083;DHT22;530;51.448;7.238;2023-04-06T00:38:16;5.20;97.80
1083;DHT22;530;51.448;7.238;2023-04-06T00:40:43;5.20;97.80
1083;DHT22;530;51.448;7.238;2023-04-06T00:43:12;5.20;97.70
1083;DHT22;530;51.448;7.238;2023-04-06T00:45:39;5.40;97.80
1083;DHT22;530;51.448;7.238;2023-04-06T00:48:05;5.40;97.80
1083;DHT22;530;51.448;7.238;2023-04-06T00:50:31;5.40;98.00
1083;DHT22;530;51.448;7.238;2023-04-06T00:52:58;5.40;97.80
1083;DHT22;530;51.448;7.238;2023-04-06T00:55:25;5.30;97.80
1083;DHT22;530;51.448;7.238;2023-04-06T00:57:51;5.80;97.80
1083;DHT22;530;51.448;7.238;2023-04-06T01:00:17;5.60;97.80
1083;DHT22;530;51.448;7.238;2023-04-06T01:02:43;5.60;98.00
1083;DHT22;530;51.448;7.238;2023-04-06T01:05:10;5.60;98.00
1083;DHT22;530;51.448;7.238;2023-04-06T01:07:36;5.60;97.90
1083;DHT22;530;51.448;7.238;2023-04-06T01:10:03;5.60;97.90
1083;DHT22;530;51.448;7.238;2023-04-06T01:12:29;5.80;97.80
1083;DHT22;530;51.448;7.238;2023-04-06T01:14:55;5.90;97.80
1083;DHT22;530;51.448;7.238;2023-04-06T01:17:21;5.60;97.50
1083;DHT22;530;51.448;7.238;2023-04-06T01:19:47;5.80;97.60
1083;DHT22;530;51.448;7.238;2023-04-06T01:22:18;5.60;97.50
1083;DHT22;530;51.448;7.238;2023-04-06T01:24:44;5.60;97.40
1083;DHT22;530;51.448;7.238;2023-04-06T01:27:10;5.70;97.40
1083;DHT22;530;51.448;7.238;2023-04-06T01:29:36;5.70;97.40
1083;DHT22;530;51.448;7.238;2023-04-06T01:32:02;5.80;97.70
1083;DHT22;530;51.448;7.238;2023-04-06T01:34:28;5.50;97.50
1083;DHT22;530;51.448;7.238;2023-04-06T01:36:54;5.50;97.30
1083;DHT22;530;51.448;7.238;2023-04-06T01:39:20;5.60;97.20
1083;DHT22;530;51.448;7.238;2023-04-06T01:41:46;5.70;97.30
1083;DHT22;530;51.448;7.238;2023-04-06T01:44:15;5.80;97.30
1083;DHT22;530;51.448;7.238;2023-04-06T01:46:41;5.60;97.30
1083;DHT22;530;51.448;7.238;2023-04-06T01:49:07;5.50;97.20
1083;DHT22;530;51.448;7.238;2023-04-06T01:51:33;5.70;97.30
1083;DHT22;530;51.448;7.238;2023-04-06T01:53:58;5.50;97.20
1083;DHT22;530;51.448;7.238;2023-04-06T01:56:24;5.60;97.50
1083;DHT22;530;51.448;7.238;2023-04-06T01:58:50;5.60;97.60
1083;DHT22;530;51.448;7.238;2023-04-06T02:01:16;5.70;97.40
1083;DHT22;530;51.448;7.238;2023-04-06T02:03:42;5.50;97.50
1083;DHT22;530;51.448;7.238;2023-04-06T02:06:08;5.50;97.50
1083;DHT22;530;51.448;7.238;2023-04-06T02:08:33;5.50;97.40
1083;DHT22;530;51.448;7.238;2023-04-06T02:10:59;5.40;97.50
1083;DHT22;530;51.448;7.238;2023-04-06T02:13:25;5.50;97.50
1083;DHT22;530;51.448;7.238;2023-04-06T02:15:50;5.70;97.70
1083;DHT22;530;51.448;7.238;2023-04-06T02:18:16;5.60;98.00
1083;DHT22;530;51.448;7.238;2023-04-06T02:20:43;5.30;97.90
1083;DHT22;530;51.448;7.238;2023-04-06T02:23:10;5.50;98.10
1083;DHT22;530;51.448;7.238;2023-04-06T02:25:35;5.40;98.00
1083;DHT22;530;51.448;7.238;2023-04-06T02:28:01;5.50;98.00
1083;DHT22;530;51.448;7.238;2023-04-06T02:30:27;5.60;98.10
1083;DHT22;530;51.448;7.238;2023-04-06T02:32:54;5.40;97.80
1083;DHT22;530;51.448;7.238;2023-04-06T02:35:20;5.40;97.70
1083;DHT22;530;51.448;7.238;2023-04-06T02:37:45;5.40;97.90
1083;DHT22;530;51.448;7.238;2023-04-06T02:40:11;5.40;97.90
1083;DHT22;530;51.448;7.238;2023-04-06T02:42:37;5.60;98.00
1083;DHT22;530;51.448;7.238;2023-04-06T02:45:03;5.60;97.90
1083;DHT22;530;51.448;7.238;2023-04-06T02:47:29;5.60;98.10
1083;DHT22;530;51.448;7.238;2023-04-06T02:49:55;5.70;97.80
1083;DHT22;530;51.448;7.238;2023-04-06T02:52:20;5.60;97.90
1083;DHT22;530;51.448;7.238;2023-04-06T02:54:46;5.60;97.90
1083;DHT22;530;51.448;7.238;2023-04-06T02:57:12;5.50;97.80
1083;DHT22;530;51.448;7.238;2023-04-06T02:59:37;5.50;97.70
1083;DHT22;530;51.448;7.238;2023-04-06T03:02:03;5.50;97.70
1083;DHT22;530;51.448;7.238;2023-04-06T03:04:29;5.50;97.90
1083;DHT22;530;51.448;7.238;2023-04-06T03:06:55;5.40;98.10
1083;DHT22;530;51.448;7.238;2023-04-06T03:09:20;5.30;98.00
1083;DHT22;530;51.448;7.238;2023-04-06T03:11:46;5.60;98.10
1083;DHT22;530;51.448;7.238;2023-04-06T03:14:12;5.40;98.00
1083;DHT22;530;51.448;7.238;2023-04-06T03:16:38;5.30;98.00
1083;DHT22;530;51.448;7.238;2023-04-06T03:19:03;5.20;98.00
1083;DHT22;530;51.448;7.238;2023-04-06T03:21:29;5.40;98.50
1083;DHT22;530;51.448;7.238;2023-04-06T03:23:55;5.20;98.40
1083;DHT22;530;51.448;7.238;2023-04-06T03:26:21;5.20;98.30
1083;DHT22;530;51.448;7.238;2023-04-06T03:28:47;5.20;98.30
1083;DHT22;530;51.448;7.238;2023-04-06T03:31:13;5.30;98.50
1083;DHT22;530;51.448;7.238;2023-04-06T03:33:39;5.10;98.60
1083;DHT22;530;51.448;7.238;2023-04-06T03:36:05;5.30;98.90
1083;DHT22;530;51.448;7.238;2023-04-06T03:38:32;5.00;98.90
1083;DHT22;530;51.448;7.238;2023-04-06T03:40:57;5.20;99.20
1083;DHT22;530;51.448;7.238;2023-04-06T03:43:23;5.20;99.20
1083;DHT22;530;51.448;7.238;2023-04-06T03:45:49;5.00;99.50
1083;DHT22;530;51.448;7.238;2023-04-06T03:48:15;4.90;99.90
1083;DHT22;530;51.448;7.238;2023-04-06T03:50:40;4.90;99.90
1083;DHT22;530;51.448;7.238;2023-04-06T03:53:06;4.90;99.90
1083;DHT22;530;51.448;7.238;2023-04-06T03:55:32;4.90;99.90
1083;DHT22;530;51.448;7.238;2023-04-06T03:57:57;5.00;99.30
1083;DHT22;530;51.448;7.238;2023-04-06T04:00:24;5.10;99.30
1083;DHT22;530;51.448;7.238;2023-04-06T04:02:50;5.10;99.10
1083;DHT22;530;51.448;7.238;2023-04-06T04:05:16;5.10;98.90
1083;DHT22;530;51.448;7.238;2023-04-06T04:07:41;5.00;98.90
1083;DHT22;530;51.448;7.238;2023-04-06T04:10:07;5.10;98.60
1083;DHT22;530;51.448;7.238;2023-04-06T04:12:33;5.20;98.40
1083;DHT22;530;51.448;7.238;2023-04-06T04:14:59;5.00;98.50
1083;DHT22;530;51.448;7.238;2023-04-06T04:17:25;5.20;98.70
1083;DHT22;530;51.448;7.238;2023-04-06T04:19:51;5.30;98.70
1083;DHT22;530;51.448;7.238;2023-04-06T04:22:16;5.10;98.50
1083;DHT22;530;51.448;7.238;2023-04-06T04:24:42;5.00;98.60
1083;DHT22;530;51.448;7.238;2023-04-06T04:27:08;5.00;98.60
1083;DHT22;530;51.448;7.238;2023-04-06T04:29:34;5.00;98.50
1083;DHT22;530;51.448;7.238;2023-04-06T04:31:59;5.00;98.30
1083;DHT22;530;51.448;7.238;2023-04-06T04:34:25;5.20;98.40
1083;DHT22;530;51.448;7.238;2023-04-06T04:36:52;4.90;98.50
1083;DHT22;530;51.448;7.238;2023-04-06T04:39:17;5.00;99.00
1083;DHT22;530;51.448;7.238;2023-04-06T04:41:43;5.10;98.90
1083;DHT22;530;51.448;7.238;2023-04-06T04:44:09;5.00;98.50
1083;DHT22;530;51.448;7.238;2023-04-06T04:46:34;5.00;98.40
1083;DHT22;530;51.448;7.238;2023-04-06T04:49:00;5.20;98.30
1083;DHT22;530;51.448;7.238;2023-04-06T04:51:26;5.20;98.20
1083;DHT22;530;51.448;7.238;2023-04-06T04:53:52;5.00;98.10
1083;DHT22;530;51.448;7.238;2023-04-06T04:56:17;5.10;97.90
1083;DHT22;530;51.448;7.238;2023-04-06T04:58:43;5.30;97.80
1083;DHT22;530;51.448;7.238;2023-04-06T05:01:09;5.30;97.50
1083;DHT22;530;51.448;7.238;2023-04-06T05:03:35;5.30;97.30
1083;DHT22;530;51.448;7.238;2023-04-06T05:06:04;5.20;97.40
1083;DHT22;530;51.448;7.238;2023-04-06T05:08:30;5.30;97.40
1083;DHT22;530;51.448;7.238;2023-04-06T05:10:56;5.20;97.60
1083;DHT22;530;51.448;7.238;2023-04-06T05:13:22;5.20;97.60
1083;DHT22;530;51.448;7.238;2023-04-06T05:15:48;5.10;97.70
1083;DHT22;530;51.448;7.238;2023-04-06T05:18:14;5.10;97.60
1083;DHT22;530;51.448;7.238;2023-04-06T05:20:40;5.20;97.50
1083;DHT22;530;51.448;7.238;2023-04-06T05:23:05;5.20;97.50
1083;DHT22;530;51.448;7.238;2023-04-06T05:25:32;5.20;97.30
1083;DHT22;530;51.448;7.238;2023-04-06T05:27:58;5.30;97.10
1083;DHT22;530;51.448;7.238;2023-04-06T05:30:24;5.20;97.20
1083;DHT22;530;51.448;7.238;2023-04-06T05:32:50;5.20;96.90
1083;DHT22;530;51.448;7.238;2023-04-06T05:35:16;5.00;96.80
1083;DHT22;530;51.448;7.238;2023-04-06T05:37:42;5.40;97.00
1083;DHT22;530;51.448;7.238;2023-04-06T05:40:08;5.20;96.70
1083;DHT22;530;51.448;7.238;2023-04-06T05:45:08;5.30;96.70
1083;DHT22;530;51.448;7.238;2023-04-06T05:47:34;5.30;96.70
1083;DHT22;530;51.448;7.238;2023-04-06T05:50:00;5.20;96.60
1083;DHT22;530;51.448;7.238;2023-04-06T05:52:26;5.40;96.50
1083;DHT22;530;51.448;7.238;2023-04-06T05:54:52;5.40;96.30
1083;DHT22;530;51.448;7.238;2023-04-06T05:57:17;5.50;96.00
1083;DHT22;530;51.448;7.238;2023-04-06T05:59:44;5.50;96.00
1083;DHT22;530;51.448;7.238;2023-04-06T06:02:09;5.60;95.40
1083;DHT22;530;51.448;7.238;2023-04-06T06:04:35;5.70;95.40
1083;DHT22;530;51.448;7.238;2023-04-06T06:07:01;5.80;95.20
1083;DHT22;530;51.448;7.238;2023-04-06T06:09:27;6.10;95.30
1083;DHT22;530;51.448;7.238;2023-04-06T06:11:53;6.00;94.90
1083;DHT22;530;51.448;7.238;2023-04-06T06:14:18;6.20;94.80
1083;DHT22;530;51.448;7.238;2023-04-06T06:16:44;6.20;94.80
1083;DHT22;530;51.448;7.238;2023-04-06T06:19:10;6.10;94.80
1083;DHT22;530;51.448;7.238;2023-04-06T06:21:35;6.30;94.50
1083;DHT22;530;51.448;7.238;2023-04-06T06:24:01;6.50;94.10
1083;DHT22;530;51.448;7.238;2023-04-06T06:26:27;6.60;93.60
1083;DHT22;530;51.448;7.238;2023-04-06T06:28:53;6.50;94.00
1083;DHT22;530;51.448;7.238;2023-04-06T06:31:18;6.60;93.90
1083;DHT22;530;51.448;7.238;2023-04-06T06:33:48;6.70;93.50
1083;DHT22;530;51.448;7.238;2023-04-06T06:36:17;6.80;93.30
1083;DHT22;530;51.448;7.238;2023-04-06T06:38:43;7.00;93.30
1083;DHT22;530;51.448;7.238;2023-04-06T06:41:09;7.20;92.80
1083;DHT22;530;51.448;7.238;2023-04-06T06:43:35;7.10;92.70
1083;DHT22;530;51.448;7.238;2023-04-06T06:46:00;7.40;92.50
1083;DHT22;530;51.448;7.238;2023-04-06T06:48:26;7.60;92.10
1083;DHT22;530;51.448;7.238;2023-04-06T06:50:52;7.50;91.70
1083;DHT22;530;51.448;7.238;2023-04-06T06:53:18;7.50;92.10
1083;DHT22;530;51.448;7.238;2023-04-06T06:55:44;7.70;91.80
1083;DHT22;530;51.448;7.238;2023-04-06T06:58:10;7.80;92.20
1083;DHT22;530;51.448;7.238;2023-04-06T07:00:35;7.90;91.80
1083;DHT22;530;51.448;7.238;2023-04-06T07:03:01;7.80;91.40
1083;DHT22;530;51.448;7.238;2023-04-06T07:05:27;8.00;91.90
1083;DHT22;530;51.448;7.238;2023-04-06T07:07:53;8.00;91.70
1083;DHT22;530;51.448;7.238;2023-04-06T07:10:19;7.90;91.00
1083;DHT22;530;51.448;7.238;2023-04-06T07:12:45;7.90;90.70
1083;DHT22;530;51.448;7.238;2023-04-06T07:15:11;8.20;90.90
1083;DHT22;530;51.448;7.238;2023-04-06T07:17:37;8.10;91.40
1083;DHT22;530;51.448;7.238;2023-04-06T07:20:03;8.10;91.70
1083;DHT22;530;51.448;7.238;2023-04-06T07:22:29;8.30;91.90
1083;DHT22;530;51.448;7.238;2023-04-06T07:24:56;8.40;91.70
1083;DHT22;530;51.448;7.238;2023-04-06T07:27:21;8.40;91.80
1083;DHT22;530;51.448;7.238;2023-04-06T07:29:47;8.40;91.60
1083;DHT22;530;51.448;7.238;2023-04-06T07:32:13;8.50;91.80
1083;DHT22;530;51.448;7.238;2023-04-06T07:34:39;8.40;91.50
1083;DHT22;530;51.448;7.238;2023-04-06T07:37:04;8.60;92.00
1083;DHT22;530;51.448;7.238;2023-04-06T07:39:30;8.70;91.10
1083;DHT22;530;51.448;7.238;2023-04-06T07:41:56;8.80;90.70
1083;DHT22;530;51.448;7.238;2023-04-06T07:44:22;8.70;90.90
1083;DHT22;530;51.448;7.238;2023-04-06T07:46:48;8.90;91.20
1083;DHT22;530;51.448;7.238;2023-04-06T07:49:13;8.90;90.90
1083;DHT22;530;51.448;7.238;2023-04-06T07:51:39;9.10;91.40
1083;DHT22;530;51.448;7.238;2023-04-06T07:54:05;9.10;91.10
1083;DHT22;530;51.448;7.238;2023-04-06T07:56:31;9.20;90.50
1083;DHT22;530;51.448;7.238;2023-04-06T07:58:57;9.20;89.60
1083;DHT22;530;51.448;7.238;2023-04-06T08:01:24;9.10;90.70
1083;DHT22;530;51.448;7.238;2023-04-06T08:03:50;9.20;91.70
1083;DHT22;530;51.448;7.238;2023-04-06T08:06:16;9.50;90.40
1083;DHT22;530;51.448;7.238;2023-04-06T08:08:42;9.30;90.20
1083;DHT22;530;51.448;7.238;2023-04-06T08:11:09;9.30;89.10
1083;DHT22;530;51.448;7.238;2023-04-06T08:13:35;9.40;89.60
1083;DHT22;530;51.448;7.238;2023-04-06T08:16:01;9.40;89.50
1083;DHT22;530;51.448;7.238;2023-04-06T08:18:26;9.30;89.70
1083;DHT22;530;51.448;7.238;2023-04-06T08:20:52;9.30;90.10
1083;DHT22;530;51.448;7.238;2023-04-06T08:23:18;9.40;90.50
1083;DHT22;530;51.448;7.238;2023-04-06T08:25:44;9.50;90.30
1083;DHT22;530;51.448;7.238;2023-04-06T08:28:09;9.60;90.50
1083;DHT22;530;51.448;7.238;2023-04-06T08:30:35;9.70;90.30
1083;DHT22;530;51.448;7.238;2023-04-06T08:33:01;9.80;90.10
1083;DHT22;530;51.448;7.238;2023-04-06T08:35:27;9.80;89.20
1083;DHT22;530;51.448;7.238;2023-04-06T08:37:53;9.90;88.60
1083;DHT22;530;51.448;7.238;2023-04-06T08:40:19;10.00;87.20
1083;DHT22;530;51.448;7.238;2023-04-06T08:42:50;10.00;86.70
1083;DHT22;530;51.448;7.238;2023-04-06T08:45:18;10.10;86.70
1083;DHT22;530;51.448;7.238;2023-04-06T08:47:48;10.10;86.30
1083;DHT22;530;51.448;7.238;2023-04-06T08:50:14;10.20;87.30
1083;DHT22;530;51.448;7.238;2023-04-06T08:52:43;10.30;86.90
1083;DHT22;530;51.448;7.238;2023-04-06T08:55:09;10.40;88.00
1083;DHT22;530;51.448;7.238;2023-04-06T08:57:36;10.40;86.20
1083;DHT22;530;51.448;7.238;2023-04-06T09:00:02;10.50;85.20
1083;DHT22;530;51.448;7.238;2023-04-06T09:02:28;10.50;84.60
1083;DHT22;530;51.448;7.238;2023-04-06T09:04:54;10.60;83.40
1083;DHT22;530;51.448;7.238;2023-04-06T09:07:21;10.60;83.10
1083;DHT22;530;51.448;7.238;2023-04-06T09:09:47;10.70;83.00
1083;DHT22;530;51.448;7.238;2023-04-06T09:12:27;10.70;83.00
1083;DHT22;530;51.448;7.238;2023-04-06T09:14:54;10.80;84.60
1083;DHT22;530;51.448;7.238;2023-04-06T09:17:25;10.90;83.90
1083;DHT22;530;51.448;7.238;2023-04-06T09:19:51;10.90;83.80
1083;DHT22;530;51.448;7.238;2023-04-06T09:22:18;10.90;83.70
1083;DHT22;530;51.448;7.238;2023-04-06T09:27:10;11.00;83.20
1083;DHT22;530;51.448;7.238;2023-04-06T09:29:36;11.10;83.40
1083;DHT22;530;51.448;7.238;2023-04-06T09:32:06;11.10;83.30
1083;DHT22;530;51.448;7.238;2023-04-06T09:34:33;11.00;80.00
1083;DHT22;530;51.448;7.238;2023-04-06T09:36:59;11.10;81.00
1083;DHT22;530;51.448;7.238;2023-04-06T09:39:25;11.10;80.70
1083;DHT22;530;51.448;7.238;2023-04-06T09:41:52;11.20;80.50
1083;DHT22;530;51.448;7.238;2023-04-06T09:44:19;11.20;80.30
1083;DHT22;530;51.448;7.238;2023-04-06T09:46:46;11.30;77.80
1083;DHT22;530;51.448;7.238;2023-04-06T09:49:13;11.40;78.60
1083;DHT22;530;51.448;7.238;2023-04-06T09:51:41;11.40;78.90
1083;DHT22;530;51.448;7.238;2023-04-06T09:54:11;11.50;79.50
1083;DHT22;530;51.448;7.238;2023-04-06T09:56:47;11.60;83.00
1083;DHT22;530;51.448;7.238;2023-04-06T09:59:25;11.70;82.10
1083;DHT22;530;51.448;7.238;2023-04-06T10:01:55;11.80;79.40
1083;DHT22;530;51.448;7.238;2023-04-06T10:06:55;12.00;80.40
1083;DHT22;530;51.448;7.238;2023-04-06T10:09:25;12.10;79.80
1083;DHT22;530;51.448;7.238;2023-04-06T10:11:51;12.10;80.20
1083;DHT22;530;51.448;7.238;2023-04-06T10:14:17;12.20;78.50
1083;DHT22;530;51.448;7.238;2023-04-06T10:16:43;12.30;78.00
1083;DHT22;530;51.448;7.238;2023-04-06T10:19:15;12.30;78.70
1083;DHT22;530;51.448;7.238;2023-04-06T10:21:45;12.30;79.20
1083;DHT22;530;51.448;7.238;2023-04-06T10:24:13;12.40;78.50
1083;DHT22;530;51.448;7.238;2023-04-06T10:26:39;12.50;76.00
1083;DHT22;530;51.448;7.238;2023-04-06T10:29:06;12.60;78.60
1083;DHT22;530;51.448;7.238;2023-04-06T10:31:31;12.70;78.50
1083;DHT22;530;51.448;7.238;2023-04-06T10:34:01;12.80;76.10
1083;DHT22;530;51.448;7.238;2023-04-06T10:36:31;12.90;75.50
1083;DHT22;530;51.448;7.238;2023-04-06T10:38:59;13.00;73.70
1083;DHT22;530;51.448;7.238;2023-04-06T10:41:50;13.10;72.40
1083;DHT22;530;51.448;7.238;2023-04-06T10:44:23;13.10;72.90
1083;DHT22;530;51.448;7.238;2023-04-06T10:46:55;13.10;69.90
1083;DHT22;530;51.448;7.238;2023-04-06T10:49:20;13.10;71.10
1083;DHT22;530;51.448;7.238;2023-04-06T10:51:51;13.10;70.90
1083;DHT22;530;51.448;7.238;2023-04-06T10:54:19;13.10;74.10
1083;DHT22;530;51.448;7.238;2023-04-06T10:56:46;13.10;74.40
1083;DHT22;530;51.448;7.238;2023-04-06T10:59:12;13.10;73.10
1083;DHT22;530;51.448;7.238;2023-04-06T11:01:37;13.20;75.30
1083;DHT22;530;51.448;7.238;2023-04-06T11:04:03;13.20;73.80
1083;DHT22;530;51.448;7.238;2023-04-06T11:06:30;13.30;71.60
1083;DHT22;530;51.448;7.238;2023-04-06T11:08:57;13.40;72.90
1083;DHT22;530;51.448;7.238;2023-04-06T11:11:25;13.40;72.60
1083;DHT22;530;51.448;7.238;2023-04-06T11:16:26;13.60;72.00
1083;DHT22;530;51.448;7.238;2023-04-06T11:19:02;13.60;71.30
1083;DHT22;530;51.448;7.238;2023-04-06T11:21:41;13.70;71.50
1083;DHT22;530;51.448;7.238;2023-04-06T11:24:14;13.80;69.80
1083;DHT22;530;51.448;7.238;2023-04-06T11:26:44;13.90;70.30
1083;DHT22;530;51.448;7.238;2023-04-06T11:29:19;14.00;70.70
1083;DHT22;530;51.448;7.238;2023-04-06T11:31:49;14.10;70.80
1083;DHT22;530;51.448;7.238;2023-04-06T11:34:23;14.20;69.80
1083;DHT22;530;51.448;7.238;2023-04-06T11:36:58;14.30;68.20
1083;DHT22;530;51.448;7.238;2023-04-06T11:39:24;14.40;68.00
1083;DHT22;530;51.448;7.238;2023-04-06T11:41:52;14.40;68.50
1083;DHT22;530;51.448;7.238;2023-04-06T11:44:42;14.40;67.00
1083;DHT22;530;51.448;7.238;2023-04-06T11:47:11;14.30;68.60
1083;DHT22;530;51.448;7.238;2023-04-06T11:49:39;14.30;67.10
1083;DHT22;530;51.448;7.238;2023-04-06T11:52:18;14.30;67.10
1083;DHT22;530;51.448;7.238;2023-04-06T11:54:45;14.20;66.80
1083;DHT22;530;51.448;7.238;2023-04-06T11:57:11;14.20;68.10
1083;DHT22;530;51.448;7.238;2023-04-06T11:59:37;14.10;67.50
1083;DHT22;530;51.448;7.238;2023-04-06T12:02:03;14.10;68.60
1083;DHT22;530;51.448;7.238;2023-04-06T12:04:29;14.00;69.30
1083;DHT22;530;51.448;7.238;2023-04-06T12:06:56;14.00;71.80
1083;DHT22;530;51.448;7.238;2023-04-06T12:09:22;14.00;71.80
1083;DHT22;530;51.448;7.238;2023-04-06T12:11:48;14.00;70.60
1083;DHT22;530;51.448;7.238;2023-04-06T12:14:14;14.10;70.90
1083;DHT22;530;51.448;7.238;2023-04-06T12:16:40;14.10;70.60
1083;DHT22;530;51.448;7.238;2023-04-06T12:19:06;14.10;71.40
1083;DHT22;530;51.448;7.238;2023-04-06T12:21:34;14.20;72.60
1083;DHT22;530;51.448;7.238;2023-04-06T12:24:03;14.20;70.40
1083;DHT22;530;51.448;7.238;2023-04-06T12:26:29;14.20;71.90
1083;DHT22;530;51.448;7.238;2023-04-06T12:28:55;14.10;71.90
1083;DHT22;530;51.448;7.238;2023-04-06T12:31:22;14.10;72.50
1083;DHT22;530;51.448;7.238;2023-04-06T12:33:51;14.10;72.50
1083;DHT22;530;51.448;7.238;2023-04-06T12:36:19;14.10;71.10
1083;DHT22;530;51.448;7.238;2023-04-06T12:38:46;14.00;73.40
1083;DHT22;530;51.448;7.238;2023-04-06T12:41:12;14.00;73.40
1083;DHT22;530;51.448;7.238;2023-04-06T12:43:39;14.00;73.90
1083;DHT22;530;51.448;7.238;2023-04-06T12:46:05;14.00;76.30
1083;DHT22;530;51.448;7.238;2023-04-06T12:48:31;14.00;73.40
1083;DHT22;530;51.448;7.238;2023-04-06T12:50:59;13.90;73.00
1083;DHT22;530;51.448;7.238;2023-04-06T12:53:25;13.90;71.60
1083;DHT22;530;51.448;7.238;2023-04-06T12:55:51;13.80;72.20
1083;DHT22;530;51.448;7.238;2023-04-06T12:58:17;13.80;72.50
1083;DHT22;530;51.448;7.238;2023-04-06T13:00:43;13.80;73.40
1083;DHT22;530;51.448;7.238;2023-04-06T13:03:09;13.80;75.00
1083;DHT22;530;51.448;7.238;2023-04-06T13:05:34;13.80;74.90
1083;DHT22;530;51.448;7.238;2023-04-06T13:08:01;13.80;75.10
1083;DHT22;530;51.448;7.238;2023-04-06T13:10:26;13.80;74.40
1083;DHT22;530;51.448;7.238;2023-04-06T13:12:52;13.70;75.20
1083;DHT22;530;51.448;7.238;2023-04-06T13:15:18;13.70;74.70
1083;DHT22;530;51.448;7.238;2023-04-06T13:17:44;13.70;75.20
1083;DHT22;530;51.448;7.238;2023-04-06T13:20:10;13.60;75.90
1083;DHT22;530;51.448;7.238;2023-04-06T13:22:35;13.50;76.10
1083;DHT22;530;51.448;7.238;2023-04-06T13:25:02;13.60;77.60
1083;DHT22;530;51.448;7.238;2023-04-06T13:27:27;13.50;78.30
1083;DHT22;530;51.448;7.238;2023-04-06T13:29:55;13.40;78.30
1083;DHT22;530;51.448;7.238;2023-04-06T13:32:21;13.40;78.60
1083;DHT22;530;51.448;7.238;2023-04-06T13:34:47;13.40;78.50
1083;DHT22;530;51.448;7.238;2023-04-06T13:37:14;13.40;79.30
1083;DHT22;530;51.448;7.238;2023-04-06T13:39:40;13.40;78.60
1083;DHT22;530;51.448;7.238;2023-04-06T13:42:06;13.30;79.70
1083;DHT22;530;51.448;7.238;2023-04-06T13:44:32;13.30;80.30
1083;DHT22;530;51.448;7.238;2023-04-06T13:46:58;13.30;81.30
1083;DHT22;530;51.448;7.238;2023-04-06T13:49:24;13.20;81.60
1083;DHT22;530;51.448;7.238;2023-04-06T13:51:50;13.20;81.60
1083;DHT22;530;51.448;7.238;2023-04-06T13:54:16;13.20;82.50
1083;DHT22;530;51.448;7.238;2023-04-06T13:56:42;13.10;83.40
1083;DHT22;530;51.448;7.238;2023-04-06T13:59:08;13.10;83.40
1083;DHT22;530;51.448;7.238;2023-04-06T14:01:33;13.10;83.60
1083;DHT22;530;51.448;7.238;2023-04-06T14:03:59;13.10;85.20
1083;DHT22;530;51.448;7.238;2023-04-06T14:06:25;13.10;85.50
1083;DHT22;530;51.448;7.238;2023-04-06T14:08:51;13.00;85.40
1083;DHT22;530;51.448;7.238;2023-04-06T14:11:17;13.00;86.30
1083;DHT22;530;51.448;7.238;2023-04-06T14:13:43;13.00;85.40
1083;DHT22;530;51.448;7.238;2023-04-06T14:16:08;12.90;84.00
1083;DHT22;530;51.448;7.238;2023-04-06T14:18:35;12.90;84.40
1083;DHT22;530;51.448;7.238;2023-04-06T14:21:01;12.90;83.30
1083;DHT22;530;51.448;7.238;2023-04-06T14:23:28;12.90;83.40
1083;DHT22;530;51.448;7.238;2023-04-06T14:26:07;12.80;84.20
1083;DHT22;530;51.448;7.238;2023-04-06T14:28:34;12.80;86.10
1083;DHT22;530;51.448;7.238;2023-04-06T14:31:10;12.80;87.80
1083;DHT22;530;51.448;7.238;2023-04-06T14:33:37;12.80;89.40
1083;DHT22;530;51.448;7.238;2023-04-06T14:36:03;12.70;90.90
1083;DHT22;530;51.448;7.238;2023-04-06T14:38:29;12.80;91.40
1083;DHT22;530;51.448;7.238;2023-04-06T14:40:55;12.70;91.80
1083;DHT22;530;51.448;7.238;2023-04-06T14:43:21;12.70;92.30
1083;DHT22;530;51.448;7.238;2023-04-06T14:45:47;12.70;92.50
1083;DHT22;530;51.448;7.238;2023-04-06T14:48:13;12.60;93.80
1083;DHT22;530;51.448;7.238;2023-04-06T14:50:41;12.50;93.90
1083;DHT22;530;51.448;7.238;2023-04-06T14:53:11;12.50;94.30
1083;DHT22;530;51.448;7.238;2023-04-06T14:55:40;12.50;94.30
1083;DHT22;530;51.448;7.238;2023-04-06T14:58:06;12.50;94.20
1083;DHT22;530;51.448;7.238;2023-04-06T15:00:32;12.50;94.40
1083;DHT22;530;51.448;7.238;2023-04-06T15:02:57;12.50;94.70
1083;DHT22;530;51.448;7.238;2023-04-06T15:05:23;12.50;95.40
1083;DHT22;530;51.448;7.238;2023-04-06T15:07:49;12.40;96.10
1083;DHT22;530;51.448;7.238;2023-04-06T15:10:15;12.30;96.10
1083;DHT22;530;51.448;7.238;2023-04-06T15:12:40;12.30;96.70
1083;DHT22;530;51.448;7.238;2023-04-06T15:15:06;12.20;98.10
1083;DHT22;530;51.448;7.238;2023-04-06T15:17:33;12.20;97.80
1083;DHT22;530;51.448;7.238;2023-04-06T15:19:59;12.20;97.60
1083;DHT22;530;51.448;7.238;2023-04-06T15:22:25;12.20;97.80
1083;DHT22;530;51.448;7.238;2023-04-06T15:24:50;12.20;98.10
1083;DHT22;530;51.448;7.238;2023-04-06T15:27:16;12.10;98.00
1083;DHT22;530;51.448;7.238;2023-04-06T15:29:42;12.10;98.30
1083;DHT22;530;51.448;7.238;2023-04-06T15:32:07;12.10;98.40
1083;DHT22;530;51.448;7.238;2023-04-06T15:34:33;12.10;98.60
1083;DHT22;530;51.448;7.238;2023-04-06T15:37:02;12.00;99.10
1083;DHT22;530;51.448;7.238;2023-04-06T15:39:29;12.00;98.90
1083;DHT22;530;51.448;7.238;2023-04-06T15:41:54;12.00;99.10
1083;DHT22;530;51.448;7.238;2023-04-06T15:44:21;11.90;99.20
1083;DHT22;530;51.448;7.238;2023-04-06T15:46:47;11.90;98.80
1083;DHT22;530;51.448;7.238;2023-04-06T15:49:13;12.00;98.80
1083;DHT22;530;51.448;7.238;2023-04-06T15:51:39;11.90;99.10
1083;DHT22;530;51.448;7.238;2023-04-06T15:54:05;11.90;98.90
1083;DHT22;530;51.448;7.238;2023-04-06T15:56:32;11.90;98.60
1083;DHT22;530;51.448;7.238;2023-04-06T15:58:58;11.90;98.70
1083;DHT22;530;51.448;7.238;2023-04-06T16:01:24;11.90;98.70
1083;DHT22;530;51.448;7.238;2023-04-06T16:03:50;11.80;98.90
1083;DHT22;530;51.448;7.238;2023-04-06T16:06:16;11.80;98.40
1083;DHT22;530;51.448;7.238;2023-04-06T16:08:42;11.70;98.60
1083;DHT22;530;51.448;7.238;2023-04-06T16:11:08;11.70;98.80
1083;DHT22;530;51.448;7.238;2023-04-06T16:13:35;11.60;99.50
1083;DHT22;530;51.448;7.238;2023-04-06T16:16:01;11.60;99.90
1083;DHT22;530;51.448;7.238;2023-04-06T16:18:28;11.60;99.90
1083;DHT22;530;51.448;7.238;2023-04-06T16:20:55;11.50;99.90
1083;DHT22;530;51.448;7.238;2023-04-06T16:23:21;11.40;99.90
1083;DHT22;530;51.448;7.238;2023-04-06T16:25:47;11.40;99.90
1083;DHT22;530;51.448;7.238;2023-04-06T16:28:12;11.30;99.90
1083;DHT22;530;51.448;7.238;2023-04-06T16:30:38;11.30;99.90
1083;DHT22;530;51.448;7.238;2023-04-06T16:33:05;11.30;99.90